Time;durP1;ratioP1;P1;durP2;ratioP2;P2;SDS_P1;SDS_P2;PMS_P1;PMS_P2;Temp;Humidity;BMP_temperature;BMP_pressure;BME280_temperature;BME280_humidity;BME280_pressure;Samples;Min_cycle;Max_cycle;Signal;HPM_P1;HPM_P2
2023/04/06 00:03:27;;;;;;;39.45;22.95;;;;;;;5.78;82.64;101740.31;10374773;28;20070;-77
2023/04/06 00:08:28;;;;;;;35.08;22.10;;;;;;;5.73;82.90;101746.09;10374598;28;20034;-77
2023/04/06 00:13:28;;;;;;;34.53;22.95;;;;;;;5.63;81.60;101731.84;10375002;28;20183;-77
2023/04/06 00:18:29;;;;;;;40.42;22.65;;;;;;;5.57;81.32;101727.91;10391343;28;20041;-77
2023/04/06 00:23:29;;;;;;;33.92;20.70;;;;;;;5.49;81.48;101729.63;10392542;28;20133;-78
2023/04/06 00:28:30;;;;;;;51.13;24.30;;;;;;;5.41;82.20;101711.53;10357329;28;20092;-77
2023/04/06 00:33:30;;;;;;;37.58;21.83;;;;;;;5.36;83.41;101709.28;10374853;28;20077;-77
2023/04/06 00:38:31;;;;;;;28.25;19.20;;;;;;;5.29;84.20;101701.94;10374834;28;20040;-76
2023/04/06 00:43:32;;;;;;;36.28;20.05;;;;;;;5.31;84.82;101690.06;10374039;28;20061;-76
2023/04/06 00:48:32;;;;;;;34.65;18.25;;;;;;;5.33;85.17;101685.41;10375410;28;20088;-77
2023/04/06 00:53:33;;;;;;;25.30;17.80;;;;;;;5.32;83.60;101678.31;10374347;28;20037;-77
2023/04/06 00:58:33;;;;;;;24.17;16.05;;;;;;;5.36;83.82;101674.38;10374096;28;20107;-77
2023/04/06 01:03:34;;;;;;;25.27;16.25;;;;;;;5.48;83.90;101672.34;10374507;28;20042;-76
2023/04/06 01:08:34;;;;;;;20.45;14.57;;;;;;;5.57;83.30;101662.56;10373093;28;20370;-76
2023/04/06 01:13:35;;;;;;;20.92;14.40;;;;;;;5.62;82.36;101649.56;10374018;28;20389;-77
2023/04/06 01:18:35;;;;;;;21.02;15.18;;;;;;;5.65;81.38;101653.78;10372179;28;20129;-77
2023/04/06 01:23:36;;;;;;;24.20;14.25;;;;;;;5.60;80.80;101636.25;10373035;28;20034;-76
2023/04/06 01:28:37;;;;;;;19.25;13.70;;;;;;;5.67;81.21;101639.19;10373963;28;20030;-78
2023/04/06 01:33:37;;;;;;;21.38;12.55;;;;;;;5.83;81.92;101625.97;10373485;28;20065;-76
2023/04/06 01:38:38;;;;;;;21.65;11.85;;;;;;;5.94;81.61;101626.81;10388727;28;20066;-78
2023/04/06 01:43:38;;;;;;;15.57;13.13;;;;;;;6.07;80.16;101621.94;10374393;28;20061;-78
2023/04/06 01:48:39;;;;;;;26.27;13.15;;;;;;;6.13;79.62;101621.34;10371998;28;20478;-77
2023/04/06 01:53:39;;;;;;;16.73;12.35;;;;;;;6.19;78.01;101609.97;10372333;28;20030;-77
2023/04/06 01:58:40;;;;;;;15.18;12.18;;;;;;;6.20;77.82;101608.97;10374121;28;20038;-77
2023/04/06 02:03:40;;;;;;;24.45;14.02;;;;;;;6.29;77.56;101601.84;10387589;28;20381;-78
2023/04/06 02:08:40;;;;;;;20.30;13.88;;;;;;;6.37;76.80;101595.69;10371004;28;20026;-77
2023/04/06 02:13:41;;;;;;;21.27;13.15;;;;;;;6.40;75.91;101590.84;10372329;28;20061;-77
2023/04/06 02:18:41;;;;;;;20.70;12.05;;;;;;;6.39;76.13;101583.78;10392350;28;20066;-76
2023/04/06 02:23:42;;;;;;;20.55;11.98;;;;;;;6.42;75.78;101593.41;10382451;28;20084;-78
2023/04/06 02:28:42;;;;;;;27.83;14.70;;;;;;;6.48;75.07;101571.25;10379780;28;20477;-78
2023/04/06 02:33:43;;;;;;;19.02;13.40;;;;;;;6.53;75.20;101574.31;10379799;28;20152;-77
2023/04/06 02:38:43;;;;;;;20.13;14.10;;;;;;;6.53;74.89;101564.41;10378087;28;20026;-77
2023/04/06 02:43:45;;;;;;;22.90;14.40;;;;;;;6.56;74.29;101565.94;10377959;28;20069;-76
2023/04/06 02:48:45;;;;;;;20.10;12.98;;;;;;;6.56;74.60;101557.03;10377130;28;20501;-77
2023/04/06 02:53:46;;;;;;;26.48;13.45;;;;;;;6.57;74.15;101548.78;10378875;28;20069;-77
2023/04/06 02:58:46;;;;;;;25.35;13.25;;;;;;;6.55;74.68;101555.34;10376826;28;20565;-77
2023/04/06 03:03:47;;;;;;;23.08;15.20;;;;;;;6.54;74.41;101538.34;10393732;28;20089;-77
2023/04/06 03:08:47;;;;;;;21.83;13.93;;;;;;;6.49;75.04;101538.81;10378667;28;20038;-77
2023/04/06 03:13:47;;;;;;;21.55;14.07;;;;;;;6.50;75.90;101535.09;10392742;28;20037;-77
2023/04/06 03:18:48;;;;;;;21.75;14.02;;;;;;;6.56;75.84;101541.72;10379224;28;20053;-77
2023/04/06 03:23:51;;;;;;;29.95;15.82;;;;;;;6.59;75.78;101536.03;10379378;28;20037;-77
2023/04/06 03:28:51;;;;;;;22.27;13.80;;;;;;;6.62;76.20;101533.03;10376926;28;20196;-77
2023/04/06 03:33:52;;;;;;;27.67;13.90;;;;;;;6.65;75.88;101535.41;10377215;28;20136;-77
2023/04/06 03:38:56;;;;;;;21.88;15.68;;;;;;;6.65;76.65;101530.03;10377664;28;20037;-77
2023/04/06 03:43:56;;;;;;;23.60;16.40;;;;;;;6.64;77.22;101520.28;10375565;28;20466;-77
2023/04/06 03:48:57;;;;;;;25.67;17.33;;;;;;;6.65;76.83;101519.25;10376518;28;20128;-77
2023/04/06 03:53:57;;;;;;;27.13;16.40;;;;;;;6.69;76.39;101514.41;10377261;28;20561;-77
2023/04/06 03:58:58;;;;;;;23.20;15.15;;;;;;;6.63;77.45;101513.19;10378294;28;20068;-77
2023/04/06 04:03:58;;;;;;;22.42;16.10;;;;;;;6.65;77.17;101511.19;10375656;28;20441;-77
2023/04/06 04:08:58;;;;;;;28.00;16.65;;;;;;;6.65;77.07;101513.88;10376877;28;20120;-77
2023/04/06 04:13:59;;;;;;;19.73;16.13;;;;;;;6.67;77.98;101509.19;10375946;28;20442;-77
2023/04/06 04:18:59;;;;;;;29.63;16.55;;;;;;;6.71;77.52;101512.41;10376043;28;20120;-76
2023/04/06 04:24:00;;;;;;;23.92;15.90;;;;;;;6.69;78.36;101504.47;10375903;28;20069;-78
2023/04/06 04:29:00;;;;;;;26.55;17.20;;;;;;;6.72;78.72;101514.09;10390995;28;20037;-78
2023/04/06 04:34:01;;;;;;;24.67;17.98;;;;;;;6.74;77.99;101502.16;10391195;28;20165;-77
2023/04/06 04:39:02;;;;;;;27.00;17.67;;;;;;;6.75;77.94;101505.69;10312151;28;20454;-76
2023/04/06 04:44:02;;;;;;;22.58;16.10;;;;;;;6.72;78.07;101509.53;10373755;28;20037;-77
2023/04/06 04:49:02;;;;;;;26.60;17.65;;;;;;;6.71;79.65;101512.41;10373467;28;20061;-76
2023/04/06 04:54:03;;;;;;;26.80;18.17;;;;;;;6.69;80.72;101514.41;10374084;28;20413;-78
2023/04/06 04:59:03;;;;;;;42.05;19.25;;;;;;;6.72;79.78;101503.31;10389373;28;20036;-78
2023/04/06 05:04:04;;;;;;;33.72;20.42;;;;;;;6.74;80.01;101507.56;10372941;28;20138;-75
2023/04/06 05:09:04;;;;;;;25.88;18.00;;;;;;;6.78;80.34;101507.25;10373724;28;20061;-75
2023/04/06 05:14:06;;;;;;;28.20;19.27;;;;;;;6.81;80.71;101506.94;10356229;28;20562;-78
2023/04/06 05:19:06;;;;;;;30.77;20.70;;;;;;;6.86;81.17;101508.16;10389011;28;20029;-78
2023/04/06 05:24:07;;;;;;;34.72;21.80;;;;;;;6.94;80.74;101501.97;10372643;28;20042;-76
2023/04/06 05:29:07;;;;;;;28.17;22.02;;;;;;;6.98;81.09;101498.78;10373591;28;20470;-76
2023/04/06 05:34:09;;;;;;;44.80;20.10;;;;;;;7.08;81.52;101497.81;10389393;28;20050;-75
2023/04/06 05:39:09;;;;;;;30.40;20.90;;;;;;;7.14;81.56;101492.63;10374641;28;20112;-76
2023/04/06 05:44:10;;;;;;;35.35;26.52;;;;;;;7.21;83.39;101496.41;10374533;28;20558;-76
2023/04/06 05:49:10;;;;;;;35.15;24.52;;;;;;;7.32;83.71;101489.88;10373215;28;20030;-76
2023/04/06 05:54:11;;;;;;;37.45;26.92;;;;;;;7.37;87.36;101476.78;10359941;28;20145;-75
2023/04/06 05:59:11;;;;;;;44.33;26.80;;;;;;;7.45;86.88;101484.88;10381411;28;20064;-76
2023/04/06 06:04:11;;;;;;;42.55;26.85;;;;;;;7.54;86.93;101483.06;10380801;28;20116;-77
2023/04/06 06:09:12;;;;;;;42.95;25.48;;;;;;;7.59;89.33;101486.09;10381548;28;20037;-77
2023/04/06 06:14:12;;;;;;;39.38;26.85;;;;;;;7.72;88.14;101480.22;10382442;28;20073;-76
2023/04/06 06:19:13;;;;;;;34.60;24.70;;;;;;;7.84;87.64;101488.84;10380080;28;20124;-75
2023/04/06 06:24:13;;;;;;;39.03;25.73;;;;;;;7.95;87.34;101485.84;10378808;28;20030;-77
2023/04/06 06:29:14;;;;;;;37.78;24.05;;;;;;;8.01;89.32;101490.59;10364292;28;20550;-76
2023/04/06 06:34:14;;;;;;;40.15;26.63;;;;;;;8.07;91.47;101481.84;10380126;28;20053;-76
2023/04/06 06:39:15;;;;;;;40.80;26.88;;;;;;;8.20;91.83;101475.06;10380298;28;20423;-75
2023/04/06 06:44:16;;;;;;;38.08;26.63;;;;;;;8.20;92.88;101481.34;10378771;28;20049;-75
2023/04/06 06:49:17;;;;;;;36.63;26.20;;;;;;;8.20;94.46;101470.53;10395487;28;20073;-76
2023/04/06 06:54:17;;;;;;;43.80;28.40;;;;;;;8.10;100.00;101468.00;10379696;28;20151;-76
2023/04/06 06:59:18;;;;;;;49.47;27.15;;;;;;;8.14;100.00;101471.22;10377346;28;20030;-76
2023/04/06 07:04:18;;;;;;;51.20;26.92;;;;;;;8.23;100.00;101469.34;10393619;28;20041;-76
2023/04/06 07:09:19;;;;;;;33.03;25.35;;;;;;;8.25;100.00;101464.63;10377606;28;20037;-76
2023/04/06 07:14:19;;;;;;;35.38;25.20;;;;;;;8.31;100.00;101461.25;10394648;28;20450;-76
2023/04/06 07:19:20;;;;;;;36.42;26.20;;;;;;;8.52;100.00;101456.22;10393519;28;20116;-77
2023/04/06 07:24:20;;;;;;;30.05;23.13;;;;;;;8.68;100.00;101449.09;10376789;28;20494;-76
2023/04/06 07:29:21;;;;;;;32.20;20.17;;;;;;;8.56;100.00;101441.38;10361263;28;20080;-76
2023/04/06 07:34:21;;;;;;;36.53;22.33;;;;;;;8.79;100.00;101448.75;10393021;28;20200;-76
2023/04/06 07:39:22;;;;;;;23.75;16.77;;;;;;;8.78;100.00;101450.63;10393840;28;20049;-77
2023/04/06 07:44:22;;;;;;;24.63;18.67;;;;;;;8.72;100.00;101442.38;10377513;28;20190;-76
2023/04/06 07:49:23;;;;;;;21.10;15.50;;;;;;;8.78;100.00;101439.81;10378906;28;20065;-76
2023/04/06 07:54:23;;;;;;;21.45;15.60;;;;;;;8.82;100.00;101445.72;10377730;28;20073;-76
2023/04/06 07:59:24;;;;;;;31.10;16.20;;;;;;;8.82;100.00;101446.53;10391826;28;20120;-77
2023/04/06 08:04:24;;;;;;;20.00;13.98;;;;;;;8.85;100.00;101454.31;10392376;28;20044;-77
2023/04/06 08:09:25;;;;;;;25.17;14.57;;;;;;;8.83;100.00;101448.22;10376473;28;20124;-77
2023/04/06 08:14:25;;;;;;;20.05;14.98;;;;;;;8.85;100.00;101454.31;10391626;28;20497;-79
2023/04/06 08:19:26;;;;;;;24.33;18.48;;;;;;;9.14;100.00;101457.44;10374759;28;20125;-78
2023/04/06 08:24:26;;;;;;;15.95;13.15;;;;;;;8.85;100.00;101457.00;10374472;28;20065;-78
2023/04/06 08:29:27;;;;;;;32.58;12.52;;;;;;;8.63;100.00;101451.50;10375101;28;20058;-78
2023/04/06 08:34:27;;;;;;;22.95;13.02;;;;;;;8.48;100.00;101454.03;10375385;28;20390;-79
2023/04/06 08:39:30;;;;;;;16.55;13.43;;;;;;;8.58;100.00;101460.94;10373559;28;20060;-78
2023/04/06 08:44:31;;;;;;;18.45;12.20;;;;;;;8.61;100.00;101449.81;10389494;28;20034;-78
2023/04/06 08:49:32;;;;;;;19.42;9.40;;;;;;;8.42;100.00;101450.16;10357292;28;20025;-77
2023/04/06 08:54:32;;;;;;;9.85;7.43;;;;;;;8.37;100.00;101445.25;10390070;28;20029;-78
2023/04/06 08:59:33;;;;;;;11.38;7.18;;;;;;;8.59;100.00;101448.28;10373928;28;20454;-78
2023/04/06 09:04:34;;;;;;;9.27;7.85;;;;;;;8.55;100.00;101444.22;10372608;28;20041;-79
2023/04/06 09:09:36;;;;;;;12.35;8.68;;;;;;;8.45;100.00;101451.66;10373883;28;20084;-79
2023/04/06 09:14:37;;;;;;;9.57;7.72;;;;;;;8.28;100.00;101445.41;10372543;28;20041;-78
2023/04/06 09:19:48;;;;;;;14.98;8.70;;;;;;;8.07;100.00;101448.59;10372750;28;20428;-76
2023/04/06 09:24:52;;;;;;;13.88;8.63;;;;;;;8.17;100.00;101438.50;10373007;28;20100;-76
2023/04/06 09:30:13;;;;;;;17.70;8.77;;;;;;;8.02;100.00;101443.72;10379174;28;20030;-76
2023/04/06 09:35:14;;;;;;;10.48;7.00;;;;;;;7.96;100.00;101433.59;10381814;28;20493;-76
2023/04/06 09:40:17;;;;;;;15.80;9.07;;;;;;;7.75;100.00;101441.31;10381387;28;20048;-76
2023/04/06 09:45:18;;;;;;;11.38;8.55;;;;;;;7.68;100.00;101425.78;10381073;28;20077;-75
2023/04/06 09:50:18;;;;;;;13.98;7.68;;;;;;;7.64;100.00;101429.84;10395950;28;20121;-76
2023/04/06 09:55:41;;;;;;;18.00;9.93;;;;;;;7.65;100.00;101423.44;10380209;28;20033;-78
2023/04/06 10:00:56;;;;;;;12.35;9.75;;;;;;;7.73;100.00;101416.41;10380719;28;20041;-78
2023/04/06 10:05:58;;;;;;;16.25;11.00;;;;;;;7.81;100.00;101413.69;10379306;28;20026;-79
2023/04/06 10:10:59;;;;;;;16.33;10.48;;;;;;;7.91;100.00;101403.59;10362329;28;20029;-79
2023/04/06 10:16:01;;;;;;;15.07;11.35;;;;;;;8.02;100.00;101411.34;10395672;28;20459;-79
2023/04/06 10:21:20;;;;;;;15.10;9.82;;;;;;;7.93;100.00;101402.41;10378578;28;20481;-78
2023/04/06 10:26:21;;;;;;;16.48;9.48;;;;;;;7.94;100.00;101403.25;10395074;28;20067;-79
2023/04/06 10:31:26;;;;;;;13.05;10.07;;;;;;;7.97;100.00;101399.38;10379302;28;20037;-79
2023/04/06 10:36:27;;;;;;;11.88;10.43;;;;;;;7.80;100.00;101395.84;10395982;28;20528;-79
2023/04/06 10:41:40;;;;;;;14.85;9.45;;;;;;;7.81;100.00;101386.72;10378129;28;20037;-78
2023/04/06 10:46:41;;;;;;;13.30;9.57;;;;;;;7.87;100.00;101386.06;10378259;28;20029;-78
2023/04/06 10:51:41;;;;;;;12.02;10.18;;;;;;;7.90;100.00;101375.78;10395327;28;20037;-78
2023/04/06 10:56:42;;;;;;;14.30;10.98;;;;;;;7.86;100.00;101373.59;10361461;28;20034;-79
2023/04/06 11:01:44;;;;;;;15.27;10.15;;;;;;;7.93;100.00;101366.50;10393518;28;20038;-79
2023/04/06 11:06:51;;;;;;;16.42;10.45;;;;;;;7.91;100.00;101352.34;10392893;28;20446;-78
2023/04/06 11:11:52;;;;;;;;;;;;;;;7.89;100.00;101355.22;10377455;28;20501;-78
2023/04/06 11:16:52;;;;;;;13.65;8.70;;;;;;;7.87;100.00;101356.41;10378340;28;20087;-78
2023/04/06 11:21:53;;;;;;;10.05;8.63;;;;;;;7.86;100.00;101358.25;10392116;28;20183;-78
2023/04/06 11:26:57;;;;;;;10.00;8.95;;;;;;;7.89;100.00;101357.09;10392114;28;20105;-78
2023/04/06 11:31:58;;;;;;;11.98;9.93;;;;;;;7.83;100.00;101346.97;10375595;28;20421;-78
2023/04/06 11:37:05;;;;;;;14.68;10.85;;;;;;;7.89;100.00;101341.75;10391194;28;20370;-78
2023/04/06 11:42:06;;;;;;;;;;;;;;;7.99;100.00;101343.44;10376312;28;20454;-77
2023/04/06 11:47:07;;;;;;;15.27;13.57;;;;;;;7.95;100.00;101350.19;10378043;28;20020;-79
2023/04/06 11:52:34;;;;;;;15.48;13.93;;;;;;;7.91;100.00;101328.06;10391062;28;20030;-79
2023/04/06 11:57:34;;;;;;;11.15;9.48;;;;;;;8.00;100.00;101339.72;10376876;28;20037;-78
2023/04/06 12:02:36;;;;;;;15.60;12.10;;;;;;;7.84;100.00;101322.53;10375260;28;20394;-77
2023/04/06 12:07:37;;;;;;;14.80;11.45;;;;;;;7.95;100.00;101334.00;10375469;28;20135;-77
2023/04/06 12:12:38;;;;;;;12.98;11.15;;;;;;;7.84;100.00;101324.38;10391115;28;20347;-77
2023/04/06 12:17:38;;;;;;;14.40;11.45;;;;;;;7.92;100.00;101316.28;10374205;28;20033;-77
2023/04/06 12:22:39;;;;;;;11.45;10.45;;;;;;;7.86;100.00;101312.41;10374995;28;20037;-79
2023/04/06 12:27:40;;;;;;;13.68;12.25;;;;;;;7.90;100.00;101321.84;10390336;28;20442;-77
2023/04/06 12:32:40;;;;;;;13.13;11.73;;;;;;;7.89;100.00;101313.94;10390231;28;20057;-77
2023/04/06 12:37:41;;;;;;;10.15;8.95;;;;;;;7.87;100.00;101306.00;10373986;28;20046;-77
2023/04/06 12:42:42;;;;;;;8.45;7.63;;;;;;;7.68;100.00;101303.66;10390467;28;20032;-76
2023/04/06 12:47:44;;;;;;;13.85;11.02;;;;;;;7.71;100.00;101299.78;10373287;28;20064;-77
2023/04/06 12:52:45;;;;;;;10.13;9.00;;;;;;;7.77;100.00;101307.19;10372581;28;20153;-77
2023/04/06 12:57:46;;;;;;;10.77;9.65;;;;;;;7.77;100.00;101288.34;10389578;28;20513;-77
2023/04/06 13:02:46;;;;;;;10.45;9.05;;;;;;;7.77;100.00;101291.88;10373048;28;20066;-76
2023/04/06 13:07:47;;;;;;;10.30;9.00;;;;;;;7.84;100.00;101292.88;10372875;28;20085;-77
2023/04/06 13:12:47;;;;;;;9.90;8.90;;;;;;;7.87;100.00;101287.13;10373922;28;20128;-78
2023/04/06 13:17:48;;;;;;;12.15;8.32;;;;;;;7.89;100.00;101276.19;10355953;28;20038;-77
2023/04/06 13:22:48;;;;;;;9.80;8.52;;;;;;;7.92;100.00;101274.00;10389225;28;20054;-77
2023/04/06 13:27:49;;;;;;;10.20;8.90;;;;;;;7.97;100.00;101276.16;10372990;28;20116;-78
2023/04/06 13:32:50;;;;;;;9.82;8.93;;;;;;;7.99;100.00;101274.16;10371711;28;20034;-78
2023/04/06 13:37:52;;;;;;;9.98;9.05;;;;;;;8.00;100.00;101278.50;10372169;28;20058;-78
2023/04/06 13:42:52;;;;;;;10.60;8.38;;;;;;;7.97;100.00;101269.94;10372352;28;20038;-75
2023/04/06 13:47:53;;;;;;;12.30;10.35;;;;;;;7.99;100.00;101271.44;10388566;28;20034;-77
2023/04/06 13:52:53;;;;;;;11.63;10.27;;;;;;;8.08;100.00;101273.13;10372960;28;20034;-78
2023/04/06 13:57:54;;;;;;;9.48;8.57;;;;;;;8.06;100.00;101268.91;10372672;28;20371;-77
2023/04/06 14:02:55;;;;;;;9.98;8.98;;;;;;;8.04;100.00;101268.22;10372674;28;20046;-77
2023/04/06 14:07:56;;;;;;;9.50;8.60;;;;;;;8.09;100.00;101261.31;10387592;28;20038;-77
2023/04/06 14:12:57;;;;;;;9.75;8.85;;;;;;;8.21;100.00;101250.16;10355326;28;20163;-77
2023/04/06 14:17:58;;;;;;;10.10;8.63;;;;;;;8.24;100.00;101255.22;10378464;28;20041;-77
2023/04/06 14:23:02;;;;;;;9.98;9.00;;;;;;;8.27;100.00;101257.56;10395553;28;20038;-78
2023/04/06 14:28:02;;;;;;;9.15;8.25;;;;;;;8.31;100.00;101254.34;10378426;28;20030;-79
2023/04/06 14:33:03;;;;;;;9.68;8.77;;;;;;;8.38;100.00;101249.09;10378048;28;20061;-77
2023/04/06 14:38:04;;;;;;;13.02;10.15;;;;;;;8.40;100.00;101236.28;10378645;28;20045;-77
2023/04/06 14:43:05;;;;;;;12.10;10.90;;;;;;;8.46;100.00;101235.59;10394579;28;20034;-79
2023/04/06 14:48:11;;;;;;;14.40;12.15;;;;;;;8.49;100.00;101235.25;10379241;28;20068;-77
2023/04/06 14:53:13;;;;;;;;;;;;;;;8.57;100.00;101232.50;10377340;28;20053;-79
2023/04/06 14:58:13;;;;;;;11.80;10.68;;;;;;;8.58;100.00;101234.19;10394011;28;19948;-79
2023/04/06 15:03:14;;;;;;;12.38;7.88;;;;;;;8.65;100.00;101225.34;10377379;28;20030;-77
2023/04/06 15:08:14;;;;;;;11.98;10.57;;;;;;;8.77;100.00;101218.53;10393344;28;20411;-77
2023/04/06 15:13:15;;;;;;;11.55;10.32;;;;;;;8.80;100.00;101226.28;10378507;28;20041;-77
2023/04/06 15:18:15;;;;;;;13.07;11.20;;;;;;;8.83;100.00;101228.63;10394441;28;20126;-77
2023/04/06 15:28:57;;;;;;;9.55;8.63;;;;;;;8.82;100.00;101213.47;10414489;28;20026;-77
2023/04/06 15:33:58;;;;;;;8.77;7.82;;;;;;;8.80;100.00;101223.59;10394543;28;20054;-80
2023/04/06 15:38:58;;;;;;;12.90;10.13;;;;;;;8.89;100.00;101219.81;10396653;28;20065;-77
2023/04/06 15:43:59;;;;;;;12.57;11.27;;;;;;;8.89;100.00;101213.59;10380416;28;20061;-76
2023/04/06 15:49:00;;;;;;;11.13;9.88;;;;;;;8.97;100.00;101208.97;10380146;28;20068;-77
2023/04/06 15:54:00;;;;;;;11.23;10.00;;;;;;;8.98;100.00;101199.00;10396388;28;20124;-77
2023/04/06 15:59:03;;;;;;;1.50;1.50;;;;;;;8.91;100.00;101215.09;10357830;28;20038;-78
2023/04/06 16:04:05;;;;;;;0.45;0.45;;;;;;;8.98;100.00;101201.72;10374814;28;20045;-78
2023/04/06 16:09:06;;;;;;;0.60;0.60;;;;;;;9.00;100.00;101203.22;10376284;28;20022;-76
2023/04/06 16:14:07;;;;;;;0.45;0.45;;;;;;;9.10;100.00;101208.38;10374894;28;20044;-76
2023/04/06 16:19:07;;;;;;;0.70;0.70;;;;;;;9.19;100.00;101214.53;10391449;28;20042;-77
2023/04/06 16:24:08;;;;;;;0.70;0.70;;;;;;;9.18;100.00;101213.72;10374800;28;20039;-78
2023/04/06 16:29:09;;;;;;;2.10;2.05;;;;;;;9.13;100.00;101213.44;10374758;28;20030;-78
2023/04/06 16:34:10;;;;;;;1.75;1.67;;;;;;;9.23;100.00;101215.88;10374533;28;20133;-78
2023/04/06 16:39:10;;;;;;;3.35;3.15;;;;;;;9.22;100.00;101216.88;10374051;28;20046;-76
2023/04/06 16:44:11;;;;;;;0.77;0.77;;;;;;;9.18;100.00;101213.72;10389997;28;20045;-76
2023/04/06 16:49:12;;;;;;;0.95;0.95;;;;;;;9.21;100.00;101220.63;10375119;28;20034;-77
2023/04/06 16:54:12;;;;;;;0.70;0.70;;;;;;;9.16;100.00;101220.34;10326157;28;20050;-79
2023/04/06 16:59:13;;;;;;;1.02;1.02;;;;;;;9.24;100.00;101217.56;10372543;28;20053;-76
2023/04/06 17:04:13;;;;;;;0.70;0.70;;;;;;;9.24;100.00;101217.56;10373634;28;20461;-77
2023/04/06 17:09:14;;;;;;;1.70;1.70;;;;;;;9.32;100.00;101221.03;10373461;28;20125;-77
2023/04/06 17:14:15;;;;;;;1.02;1.02;;;;;;;9.32;100.00;101226.44;10375787;28;20454;-76
2023/04/06 17:19:16;;;;;;;0.60;0.60;;;;;;;9.31;100.00;101232.00;10375456;28;20038;-75
2023/04/06 17:24:16;;;;;;;0.93;0.93;;;;;;;9.34;100.00;101234.34;10374517;28;20038;-76
2023/04/06 17:29:17;;;;;;;0.77;0.77;;;;;;;9.29;100.00;101239.47;10373719;28;20037;-75
2023/04/06 17:34:17;;;;;;;1.13;1.05;;;;;;;9.37;100.00;101255.63;10372230;28;20056;-75
2023/04/06 17:39:18;;;;;;;0.52;0.52;;;;;;;9.43;100.00;101246.78;10374294;28;20046;-76
2023/04/06 17:44:19;;;;;;;0.65;0.65;;;;;;;9.48;100.00;101247.09;10372779;28;20038;-76
2023/04/06 17:49:20;;;;;;;1.35;1.35;;;;;;;9.48;100.00;101257.91;10376010;28;20030;-77
2023/04/06 17:54:20;;;;;;;0.75;0.75;;;;;;;9.43;100.00;101260.31;10381225;28;20038;-76
2023/04/06 17:59:21;;;;;;;0.40;0.40;;;;;;;9.40;100.00;101259.81;10379758;28;20095;-77
2023/04/06 18:04:22;;;;;;;0.60;0.60;;;;;;;9.40;100.00;101259.81;10396796;28;20037;-77
2023/04/06 18:09:22;;;;;;;0.40;0.40;;;;;;;9.37;100.00;101266.44;10380472;28;20037;-78
2023/04/06 18:14:23;;;;;;;0.25;0.25;;;;;;;9.35;100.00;101278.44;10378604;28;20474;-77
2023/04/06 18:19:23;;;;;;;0.40;0.40;;;;;;;9.32;100.00;101280.50;10379682;28;20121;-77
2023/04/06 18:24:24;;;;;;;0.30;0.30;;;;;;;9.26;100.00;101283.09;10381510;28;20104;-77
2023/04/06 18:29:24;;;;;;;0.40;0.40;;;;;;;9.13;100.00;101290.94;10380466;28;20125;-77
2023/04/06 18:34:25;;;;;;;0.60;0.60;;;;;;;9.01;100.00;101296.75;10378220;28;20057;-77
2023/04/06 18:39:26;;;;;;;0.85;0.85;;;;;;;9.01;100.00;101310.25;10394219;28;20097;-77
2023/04/06 18:44:27;;;;;;;0.40;0.40;;;;;;;9.00;100.00;101323.94;10378079;28;20421;-77
2023/04/06 18:49:28;;;;;;;0.30;0.30;;;;;;;8.93;100.00;101323.78;10393677;28;20041;-77
2023/04/06 18:54:28;;;;;;;0.43;0.43;;;;;;;8.86;100.00;101333.59;10378311;28;20038;-77
2023/04/06 18:59:30;;;;;;;0.30;0.30;;;;;;;8.73;100.00;101336.88;10376812;28;20490;-77
2023/04/06 19:04:31;;;;;;;0.40;0.40;;;;;;;8.55;100.00;101337.13;10378506;28;20485;-77
2023/04/06 19:09:32;;;;;;;0.40;0.40;;;;;;;8.46;100.00;101332.75;10394027;28;20125;-77
2023/04/06 19:14:32;;;;;;;0.50;0.50;;;;;;;8.48;100.00;101348.75;10393985;28;20053;-79
2023/04/06 19:19:33;;;;;;;0.40;0.40;;;;;;;8.41;100.00;101345.91;10376975;28;20030;-77
2023/04/06 19:24:34;;;;;;;0.50;0.50;;;;;;;8.31;100.00;101362.25;10377783;28;20425;-79
2023/04/06 19:29:37;;;;;;;1.45;1.45;;;;;;;8.15;100.00;101357.72;10375622;28;20033;-77
2023/04/06 19:34:37;;;;;;;0.45;0.45;;;;;;;8.12;100.00;101358.06;10377753;28;20042;-77
2023/04/06 19:39:38;;;;;;;0.50;0.50;;;;;;;8.14;100.00;101357.91;10360695;28;20033;-76
2023/04/06 19:44:42;;;;;;;0.43;0.43;;;;;;;8.19;100.00;101368.19;10375719;28;20465;-77
2023/04/06 19:49:43;;;;;;;0.43;0.43;;;;;;;8.23;100.00;101369.53;10376099;28;20038;-78
2023/04/06 19:54:45;;;;;;;0.40;0.40;;;;;;;8.26;100.00;101371.88;10391768;28;20041;-77
2023/04/06 19:59:46;;;;;;;0.50;0.50;;;;;;;8.31;100.00;101373.06;10376509;28;20068;-77
2023/04/06 20:04:46;;;;;;;0.50;0.50;;;;;;;8.36;100.00;101377.97;10376325;28;20113;-76
2023/04/06 20:10:04;;;;;;;1.25;1.25;;;;;;;8.35;100.00;101373.56;10374827;28;20038;-76
2023/04/06 20:15:08;;;;;;;0.40;0.40;;;;;;;8.33;100.00;101379.13;10376449;28;20034;-76
2023/04/06 20:20:10;;;;;;;0.40;0.40;;;;;;;8.31;100.00;101393.81;10373752;28;20128;-76
2023/04/06 20:25:11;;;;;;;0.40;0.40;;;;;;;8.27;100.00;101395.16;10374184;28;20478;-78
2023/04/06 20:30:13;;;;;;;0.98;0.98;;;;;;;8.28;100.00;101404.94;10375723;28;20037;-76
2023/04/06 20:35:14;;;;;;;5.85;5.25;;;;;;;8.30;100.00;101419.13;10374621;28;20046;-76
2023/04/06 20:40:15;;;;;;;0.40;0.40;;;;;;;8.28;100.00;101418.44;10374955;28;20068;-76
2023/04/06 20:45:15;;;;;;;0.40;0.40;;;;;;;8.25;100.00;101427.69;10374674;28;20033;-78
2023/04/06 20:50:19;;;;;;;0.50;0.50;;;;;;;8.21;100.00;101422.81;10375144;28;20180;-77
2023/04/06 20:55:20;;;;;;;0.50;0.50;;;;;;;8.14;100.00;101426.19;10356848;28;20441;-76
2023/04/06 21:00:21;;;;;;;2.03;1.98;;;;;;;8.10;100.00;101434.78;10374403;28;20083;-76
2023/04/06 21:05:21;;;;;;;0.40;0.40;;;;;;;8.12;100.00;101430.91;10373712;28;20066;-76
2023/04/06 21:10:22;;;;;;;0.50;0.50;;;;;;;8.20;100.00;101435.47;10374584;28;20109;-76
2023/04/06 21:15:23;;;;;;;0.40;0.40;;;;;;;8.29;100.00;101437.13;10372681;28;20038;-77
2023/04/06 21:20:24;;;;;;;0.40;0.40;;;;;;;8.30;100.00;101435.31;10373935;28;20048;-76
2023/04/06 21:25:25;;;;;;;0.40;0.40;;;;;;;8.33;100.00;101424.16;10395378;28;20030;-77
2023/04/06 21:30:25;;;;;;;0.50;0.50;;;;;;;8.23;100.00;101436.97;10380712;28;20033;-76
2023/04/06 21:35:26;;;;;;;0.60;0.60;;;;;;;8.26;100.00;101439.31;10381834;28;20065;-77
2023/04/06 21:40:33;;;;;;;0.40;0.40;;;;;;;8.32;100.00;101446.75;10381819;28;20120;-76
2023/04/06 21:45:36;;;;;;;0.50;0.50;;;;;;;8.34;100.00;101444.75;10396164;28;20576;-77
2023/04/06 21:50:42;;;;;;;0.50;0.50;;;;;;;8.29;100.00;101441.69;10381742;28;20030;-76
2023/04/06 21:55:44;;;;;;;0.73;0.73;;;;;;;8.22;100.00;101443.38;10397124;28;20116;-76
2023/04/06 22:00:45;;;;;;;0.30;0.30;;;;;;;8.20;100.00;101440.88;10381322;28;20351;-77
2023/04/06 22:05:45;;;;;;;0.65;0.65;;;;;;;8.17;100.00;101449.31;10380853;28;20117;-78
2023/04/06 22:10:46;;;;;;;2.28;2.17;;;;;;;8.12;100.00;101440.84;10378864;28;20118;-76
2023/04/06 22:15:47;;;;;;;0.40;0.40;;;;;;;8.08;100.00;101443.06;10380667;28;20125;-76
2023/04/06 22:20:48;;;;;;;1.20;1.20;;;;;;;8.09;100.00;101450.13;10380210;28;20562;-75
2023/04/06 22:25:48;;;;;;;0.50;0.50;;;;;;;8.05;100.00;101456.88;10380043;28;20037;-76
2023/04/06 22:30:49;;;;;;;0.40;0.40;;;;;;;8.05;100.00;101450.63;10379773;28;20227;-75
2023/04/06 22:35:49;;;;;;;1.30;1.30;;;;;;;8.09;100.00;101466.31;10379468;28;20046;-77
2023/04/06 22:40:50;;;;;;;0.40;0.40;;;;;;;8.06;100.00;101466.63;10395382;28;20044;-76
2023/04/06 22:45:51;;;;;;;0.95;0.95;;;;;;;8.09;100.00;101471.69;10379291;28;20033;-76
2023/04/06 22:51:00;;;;;;;0.40;0.40;;;;;;;8.13;100.00;101474.91;10377346;28;20034;-76
2023/04/06 22:56:01;;;;;;;0.55;0.55;;;;;;;8.13;100.00;101478.44;10379317;28;20129;-76
2023/04/06 23:01:02;;;;;;;0.95;0.95;;;;;;;8.15;100.00;101473.72;10377575;28;20125;-76